Time;durP1;ratioP1;P1;durP2;ratioP2;P2;SDS_P1;SDS_P2;PMS_P1;PMS_P2;Temp;Humidity;BMP_temperature;BMP_pressure;BME280_temperature;BME280_humidity;BME280_pressure;Samples;Min_cycle;Max_cycle;Signal;HPM_P1;HPM_P2
2023/01/27 00:02:13;;;;;;;24.80;11.95;;;7.80;99.90;;;;;;5066363;29;20028;-71
2023/01/27 00:04:44;;;;;;;26.15;12.32;;;7.60;99.90;;;;;;5066500;29;20569;-71
2023/01/27 00:07:14;;;;;;;28.85;13.50;;;7.50;99.90;;;;;;5066572;29;20434;-71
2023/01/27 00:09:45;;;;;;;26.77;11.93;;;7.80;99.90;;;;;;5066276;29;20038;-71
2023/01/27 00:15:12;;;;;;;26.65;10.90;;;8.00;99.90;;;;;;5066472;29;20051;-70
2023/01/27 00:17:43;;;;;;;20.25;11.32;;;8.60;99.90;;;;;;5066456;29;20107;-71
2023/01/27 00:24:34;;;;;;;21.10;11.80;;;7.90;99.90;;;;;;5066463;29;20116;-71
2023/01/27 00:25:57;;;;;;;24.38;12.43;;;7.70;99.90;;;;;;5066683;29;20073;-71
2023/01/27 00:28:30;;;;;;;22.85;11.75;;;8.10;99.90;;;;;;5066205;29;20029;-70
2023/01/27 00:31:01;;;;;;;21.75;11.90;;;8.30;99.90;;;;;;5066159;29;20032;-71
2023/01/27 00:33:31;;;;;;;25.95;12.40;;;8.10;99.90;;;;;;5066292;29;20511;-71
2023/01/27 00:36:06;;;;;;;27.52;13.68;;;7.60;99.90;;;;;;5066251;29;20025;-70
2023/01/27 00:38:39;;;;;;;20.65;11.65;;;7.90;99.90;;;;;;5066380;29;20025;-71
2023/01/27 00:41:19;;;;;;;20.85;10.43;;;8.40;99.90;;;;;;5066038;29;20471;-71
2023/01/27 00:43:52;;;;;;;23.97;12.10;;;8.10;99.90;;;;;;5066053;29;20161;-70
2023/01/27 00:46:24;;;;;;;20.52;11.02;;;8.40;99.90;;;;;;5066089;29;20107;-70
2023/01/27 00:48:55;;;;;;;21.20;11.05;;;8.00;99.90;;;;;;5064743;29;20172;-70
2023/01/27 00:51:26;;;;;;;29.10;11.35;;;8.20;99.90;;;;;;5065842;29;20131;-70
2023/01/27 00:53:58;;;;;;;21.55;10.93;;;7.80;99.90;;;;;;5064781;29;20033;-71
2023/01/27 00:56:29;;;;;;;22.10;10.80;;;7.60;99.90;;;;;;5068919;29;20033;-71
2023/01/27 00:59:00;;;;;;;20.48;10.15;;;7.90;99.90;;;;;;5069926;29;20080;-70
2023/01/27 01:01:32;;;;;;;19.80;10.15;;;8.20;99.90;;;;;;5069802;29;20518;-71
2023/01/27 01:04:03;;;;;;;18.45;8.85;;;8.40;99.90;;;;;;5069702;29;20033;-71
2023/01/27 01:06:34;;;;;;;16.63;9.55;;;8.60;99.90;;;;;;5068519;29;20040;-71
2023/01/27 01:09:05;;;;;;;17.58;9.93;;;7.90;99.90;;;;;;5069563;29;20020;-70
2023/01/27 01:11:36;;;;;;;20.02;10.38;;;8.10;99.90;;;;;;5069366;29;20131;-70
2023/01/27 01:14:07;;;;;;;20.67;10.45;;;7.90;99.90;;;;;;5069288;29;20489;-71
2023/01/27 01:16:38;;;;;;;23.75;12.07;;;7.40;99.90;;;;;;5069537;29;20092;-71
2023/01/27 01:19:08;;;;;;;26.35;11.75;;;7.60;99.90;;;;;;5069484;29;20035;-71
2023/01/27 01:21:39;;;;;;;23.13;11.27;;;7.80;99.90;;;;;;5069598;29;20056;-71
2023/01/27 01:24:10;;;;;;;26.10;10.75;;;8.10;99.90;;;;;;5069434;29;20056;-71
2023/01/27 01:26:41;;;;;;;19.33;10.40;;;7.70;99.90;;;;;;5069541;29;20462;-70
2023/01/27 01:29:12;;;;;;;19.42;10.13;;;8.30;99.90;;;;;;5068360;29;20407;-71
2023/01/27 01:31:43;;;;;;;16.83;10.70;;;7.80;99.90;;;;;;5069279;29;20043;-71
2023/01/27 01:34:13;;;;;;;19.83;9.82;;;7.90;99.90;;;;;;5069178;29;20029;-71
2023/01/27 01:36:44;;;;;;;23.10;11.07;;;7.90;99.90;;;;;;5069146;29;20061;-71
2023/01/27 01:39:15;;;;;;;20.63;10.40;;;7.50;99.90;;;;;;5067904;29;20031;-71
2023/01/27 01:41:46;;;;;;;22.52;10.15;;;7.70;99.90;;;;;;5069079;29;20024;-71
2023/01/27 01:44:26;;;;;;;19.55;10.90;;;7.70;99.90;;;;;;5068866;29;20100;-71
2023/01/27 01:46:58;;;;;;;25.10;11.02;;;7.60;99.90;;;;;;5068816;29;20026;-70
2023/01/27 01:49:36;;;;;;;23.83;11.40;;;7.30;99.90;;;;;;5068836;29;20060;-71
2023/01/27 01:52:11;;;;;;;20.77;11.35;;;7.20;99.90;;;;;;5068786;29;20133;-70
2023/01/27 01:54:46;;;;;;;24.10;12.75;;;7.40;99.90;;;;;;5068904;29;20029;-71
2023/01/27 01:57:25;;;;;;;21.58;10.65;;;7.60;99.90;;;;;;5068725;29;20025;-70
2023/01/27 02:00:01;;;;;;;24.75;11.15;;;8.10;99.90;;;;;;5068773;29;20025;-70
2023/01/27 02:02:33;;;;;;;20.48;11.63;;;7.60;99.90;;;;;;5068747;29;20028;-71
2023/01/27 02:05:09;;;;;;;24.67;11.75;;;7.40;99.90;;;;;;5068853;29;20036;-70
2023/01/27 02:07:43;;;;;;;23.42;10.57;;;7.50;99.90;;;;;;5066384;29;20032;-70
2023/01/27 02:10:14;;;;;;;27.05;13.02;;;8.00;99.90;;;;;;5068635;29;20028;-71
2023/01/27 02:12:45;;;;;;;22.17;12.23;;;8.10;99.90;;;;;;5068436;29;20104;-71
2023/01/27 02:15:16;;;;;;;27.58;12.70;;;7.70;99.90;;;;;;5068288;29;20427;-71
2023/01/27 02:17:48;;;;;;;31.67;12.00;;;8.10;99.90;;;;;;5068361;29;20029;-71
2023/01/27 02:20:42;;;;;;;32.03;12.60;;;8.30;99.90;;;;;;5068261;29;20584;-71
2023/01/27 02:23:22;;;;;;;24.25;12.55;;;8.10;99.90;;;;;;5068428;29;20028;-70
2023/01/27 02:26:19;;;;;;;29.08;13.50;;;8.10;99.90;;;;;;5068216;29;20036;-71
2023/01/27 02:28:58;;;;;;;23.90;13.82;;;8.50;99.90;;;;;;5068120;29;20029;-71
2023/01/27 02:31:29;;;;;;;25.15;11.88;;;8.40;99.90;;;;;;5068135;29;20052;-71
2023/01/27 02:34:11;;;;;;;26.70;12.93;;;8.40;99.90;;;;;;5067804;29;20024;-71
2023/01/27 02:36:53;;;;;;;26.13;12.00;;;8.60;99.90;;;;;;5068202;29;20545;-71
2023/01/27 02:39:31;;;;;;;30.40;13.63;;;7.90;99.90;;;;;;5068065;29;20426;-71
2023/01/27 02:42:04;;;;;;;29.42;12.35;;;7.90;99.90;;;;;;5068171;29;20109;-70
2023/01/27 02:44:35;;;;;;;23.13;12.65;;;8.00;99.90;;;;;;5067920;29;20561;-70
2023/01/27 02:47:06;;;;;;;24.23;12.60;;;7.80;99.90;;;;;;5068274;29;20037;-70
2023/01/27 02:49:37;;;;;;;23.90;11.45;;;8.20;99.90;;;;;;5068027;29;20027;-70
2023/01/27 02:52:08;;;;;;;29.27;12.63;;;7.90;99.90;;;;;;5067699;29;20046;-70
2023/01/27 02:54:39;;;;;;;22.75;12.77;;;7.60;99.90;;;;;;5066408;29;20032;-71
2023/01/27 02:57:10;;;;;;;29.13;12.10;;;8.10;99.90;;;;;;5067847;29;20477;-70
2023/01/27 02:59:40;;;;;;;25.42;12.02;;;8.20;99.90;;;;;;5067682;29;20103;-70
2023/01/27 03:02:21;;;;;;;27.25;12.10;;;7.70;99.90;;;;;;5067510;29;20027;-71
2023/01/27 03:04:52;;;;;;;24.00;11.60;;;7.90;99.90;;;;;;5067601;29;20031;-71
2023/01/27 03:07:24;;;;;;;23.58;12.50;;;7.90;99.90;;;;;;5067434;29;20032;-70
2023/01/27 03:09:55;;;;;;;24.02;12.88;;;8.40;99.90;;;;;;5067434;29;20024;-71
2023/01/27 03:12:26;;;;;;;20.13;11.20;;;8.30;99.90;;;;;;5067265;29;20037;-71
2023/01/27 03:20:35;;;;;;;27.40;13.20;;;7.80;99.90;;;;;;5067183;29;20474;-70
2023/01/27 03:23:06;;;;;;;32.65;13.68;;;7.20;99.90;;;;;;5067336;29;20021;-70
2023/01/27 03:25:41;;;;;;;28.33;12.85;;;7.40;99.90;;;;;;5067212;29;20033;-70
2023/01/27 03:28:12;;;;;;;28.75;11.95;;;7.80;99.90;;;;;;5067060;29;20032;-71
2023/01/27 03:30:43;;;;;;;26.95;11.65;;;8.10;99.90;;;;;;5067006;29;20613;-70
2023/01/27 03:33:14;;;;;;;28.17;12.05;;;7.70;99.90;;;;;;5066586;29;20040;-71
2023/01/27 03:35:48;;;;;;;32.47;12.35;;;7.70;99.90;;;;;;5066669;29;20111;-71
2023/01/27 03:46:47;;;;;;;28.65;11.88;;;7.90;99.90;;;;;;5066659;29;20040;-71
2023/01/27 03:49:18;;;;;;;23.20;11.63;;;7.90;99.90;;;;;;5066375;29;20067;-71
2023/01/27 03:51:49;;;;;;;22.35;11.40;;;8.30;99.90;;;;;;5066539;29;20068;-70
2023/01/27 03:54:20;;;;;;;25.83;12.65;;;8.30;99.90;;;;;;5066653;29;20029;-71
2023/01/27 03:56:51;;;;;;;21.63;11.35;;;8.00;99.90;;;;;;5066402;29;20056;-71
2023/01/27 03:59:22;;;;;;;29.23;11.30;;;8.30;99.90;;;;;;5066707;29;20059;-71
2023/01/27 04:07:34;;;;;;;23.67;11.65;;;8.00;99.90;;;;;;5066483;29;20036;-71
2023/01/27 04:10:06;;;;;;;26.90;11.75;;;7.90;99.90;;;;;;5066568;29;20024;-71
2023/01/27 04:12:37;;;;;;;23.60;11.23;;;8.00;99.90;;;;;;5066366;29;20137;-71
2023/01/27 04:15:08;;;;;;;27.55;11.55;;;8.20;99.90;;;;;;5065966;29;20061;-71
2023/01/27 04:17:40;;;;;;;21.38;11.05;;;7.90;99.90;;;;;;5066246;29;20567;-70
2023/01/27 04:20:11;;;;;;;21.50;10.98;;;7.70;99.90;;;;;;5066160;29;20096;-71
2023/01/27 04:22:42;;;;;;;20.27;11.43;;;7.70;99.90;;;;;;5066528;29;20107;-71
2023/01/27 04:25:13;;;;;;;21.73;11.27;;;7.90;99.90;;;;;;5066312;29;20060;-71
2023/01/27 04:27:44;;;;;;;24.73;11.02;;;7.50;99.90;;;;;;5064883;29;20481;-70
2023/01/27 04:30:15;;;;;;;20.05;10.98;;;7.70;99.90;;;;;;5067360;29;20033;-70
2023/01/27 04:32:46;;;;;;;19.83;11.23;;;7.90;99.90;;;;;;5070390;29;20036;-71
2023/01/27 04:35:17;;;;;;;25.15;11.32;;;7.90;99.90;;;;;;5070329;29;20027;-71
2023/01/27 04:37:48;;;;;;;19.33;10.00;;;7.90;99.90;;;;;;5070352;29;20028;-71
2023/01/27 04:40:19;;;;;;;27.02;10.85;;;7.50;99.90;;;;;;5070345;29;20025;-71
2023/01/27 04:42:53;;;;;;;27.08;10.93;;;7.70;99.90;;;;;;5069995;29;20120;-70
2023/01/27 04:45:24;;;;;;;20.90;10.82;;;8.00;99.90;;;;;;5070087;29;20078;-70
2023/01/27 04:47:54;;;;;;;19.30;11.00;;;7.90;99.90;;;;;;5069858;29;20033;-70
2023/01/27 04:50:25;;;;;;;24.88;10.77;;;7.80;99.90;;;;;;5068361;29;20103;-71
2023/01/27 04:52:56;;;;;;;21.45;10.77;;;7.20;99.90;;;;;;5069743;29;20042;-70
2023/01/27 04:55:27;;;;;;;17.27;10.82;;;7.10;99.90;;;;;;5069892;29;20084;-70
2023/01/27 04:57:58;;;;;;;25.65;12.20;;;7.40;99.90;;;;;;5069751;29;20553;-71
2023/01/27 05:00:29;;;;;;;24.23;11.35;;;7.30;99.90;;;;;;5069935;29;20031;-72
2023/01/27 05:02:59;;;;;;;22.10;11.30;;;7.30;99.90;;;;;;5069935;29;20032;-70
2023/01/27 05:05:34;;;;;;;23.85;11.38;;;7.50;99.90;;;;;;5051301;29;20050;-70
2023/01/27 05:08:08;;;;;;;22.17;11.43;;;7.50;99.90;;;;;;5061594;29;20035;-69
2023/01/27 05:10:41;;;;;;;17.98;10.85;;;7.60;99.90;;;;;;5065047;29;20067;-69
2023/01/27 05:13:12;;;;;;;25.83;11.80;;;7.50;99.90;;;;;;5065353;29;20037;-69
2023/01/27 05:15:52;;;;;;;24.35;11.13;;;7.40;99.90;;;;;;5065654;29;20052;-69
2023/01/27 05:18:25;;;;;;;26.95;12.35;;;7.50;99.90;;;;;;5066916;29;20016;-70
2023/01/27 05:21:01;;;;;;;19.02;10.70;;;7.70;99.90;;;;;;5063178;29;20119;-70
2023/01/27 05:23:35;;;;;;;25.20;10.55;;;7.40;99.90;;;;;;5068922;29;20028;-70
2023/01/27 05:26:09;;;;;;;20.58;11.15;;;7.50;99.90;;;;;;5068654;29;20088;-69
2023/01/27 05:28:43;;;;;;;26.65;12.13;;;7.40;99.90;;;;;;5068842;29;20036;-69
2023/01/27 05:31:17;;;;;;;23.73;12.02;;;7.50;99.90;;;;;;5068720;29;20104;-71
2023/01/27 05:33:55;;;;;;;25.50;12.02;;;7.70;99.90;;;;;;5067435;29;20472;-70
2023/01/27 05:36:27;;;;;;;23.45;11.60;;;7.50;99.90;;;;;;5059638;29;20128;-71
2023/01/27 05:38:58;;;;;;;20.02;11.25;;;7.60;99.90;;;;;;5063925;29;20048;-71
2023/01/27 05:41:30;;;;;;;17.27;9.45;;;7.70;99.90;;;;;;5067313;29;20043;-70
2023/01/27 05:44:01;;;;;;;14.82;9.18;;;8.00;99.90;;;;;;5068391;29;20020;-70
2023/01/27 05:46:32;;;;;;;12.30;8.50;;;8.60;99.90;;;;;;5068804;29;20442;-71
2023/01/27 05:49:04;;;;;;;17.98;9.18;;;9.30;99.90;;;;;;5068510;29;20594;-69
2023/01/27 05:51:38;;;;;;;21.27;8.60;;;8.90;99.90;;;;;;5068576;29;20366;-71
2023/01/27 05:54:10;;;;;;;19.17;7.80;;;9.30;99.90;;;;;;5068185;29;20043;-70
2023/01/27 05:56:40;;;;;;;12.88;7.53;;;9.30;99.90;;;;;;5068624;29;20038;-72
2023/01/27 05:59:11;;;;;;;14.57;7.35;;;9.60;99.90;;;;;;5068510;29;20406;-71
2023/01/27 06:01:42;;;;;;;11.52;9.80;;;9.70;99.90;;;;;;5068202;29;20055;-71
2023/01/27 06:04:13;;;;;;;13.68;8.13;;;9.60;99.90;;;;;;5068218;29;20031;-71
2023/01/27 06:06:44;;;;;;;20.92;18.58;;;9.70;99.90;;;;;;5068205;29;20031;-71
2023/01/27 06:09:15;;;;;;;17.75;15.85;;;9.90;99.90;;;;;;5068144;29;20021;-70
2023/01/27 06:11:46;;;;;;;23.88;18.48;;;9.80;99.90;;;;;;5068055;29;20100;-70
2023/01/27 06:14:18;;;;;;;18.05;16.27;;;9.90;99.90;;;;;;5067091;29;20045;-70
2023/01/27 06:16:49;;;;;;;21.88;15.82;;;9.80;99.90;;;;;;5067626;29;20641;-70
2023/01/27 06:19:20;;;;;;;18.30;11.90;;;9.80;99.90;;;;;;5067494;29;20461;-70
2023/01/27 06:21:51;;;;;;;21.80;19.17;;;9.80;99.90;;;;;;5065607;29;20025;-69
2023/01/27 06:24:22;;;;;;;13.10;10.77;;;9.70;99.90;;;;;;5061395;29;20025;-69
2023/01/27 06:26:55;;;;;;;14.65;12.52;;;9.70;99.90;;;;;;5064015;29;20084;-69
2023/01/27 06:29:26;;;;;;;24.67;22.63;;;9.80;99.90;;;;;;5064071;29;20505;-69
2023/01/27 06:31:57;;;;;;;16.23;14.57;;;9.70;99.90;;;;;;5065646;29;20033;-70
2023/01/27 06:34:28;;;;;;;18.42;13.80;;;10.00;99.90;;;;;;5071758;29;20086;-69
2023/01/27 06:36:59;;;;;;;16.75;14.35;;;9.90;99.90;;;;;;5067974;29;20489;-70
2023/01/27 06:39:30;;;;;;;16.58;14.95;;;9.90;99.90;;;;;;5067543;29;20093;-70
2023/01/27 06:42:00;;;;;;;15.23;13.52;;;10.10;99.90;;;;;;5057684;29;20037;-69
2023/01/27 06:44:31;;;;;;;21.90;20.15;;;10.00;99.90;;;;;;5065959;29;20033;-71
2023/01/27 06:47:02;;;;;;;27.30;25.23;;;9.60;99.90;;;;;;5067418;29;20032;-70
2023/01/27 06:49:33;;;;;;;12.77;10.07;;;9.80;99.90;;;;;;5067238;29;20108;-70
2023/01/27 06:52:05;;;;;;;23.67;21.75;;;9.90;99.90;;;;;;5067388;29;20044;-69
2023/01/27 06:54:36;;;;;;;30.65;28.50;;;10.00;99.90;;;;;;5066825;29;20088;-69
2023/01/27 06:57:10;;;;;;;9.68;5.90;;;9.60;99.90;;;;;;5067151;29;20033;-70
2023/01/27 06:59:41;;;;;;;6.82;4.22;;;10.10;99.90;;;;;;5063523;29;20017;-70
2023/01/27 07:02:12;;;;;;;8.98;5.97;;;9.90;99.90;;;;;;5066776;29;20569;-69
2023/01/27 07:04:43;;;;;;;15.98;14.75;;;10.00;99.90;;;;;;5067076;29;20103;-69
2023/01/27 07:07:14;;;;;;;14.57;13.32;;;10.20;99.90;;;;;;5067117;29;20214;-70
2023/01/27 07:09:44;;;;;;;8.77;7.00;;;10.10;99.90;;;;;;5067005;29;20103;-69
2023/01/27 07:12:15;;;;;;;9.70;8.63;;;10.30;99.90;;;;;;5066641;29;20047;-69
2023/01/27 07:14:46;;;;;;;17.48;16.17;;;10.40;99.90;;;;;;5066199;29;20056;-71
2023/01/27 07:17:17;;;;;;;25.73;23.67;;;10.60;99.90;;;;;;5066313;29;20024;-72
2023/01/27 07:19:48;;;;;;;22.45;20.30;;;10.90;99.90;;;;;;5066420;29;20021;-72
2023/01/27 07:22:19;;;;;;;15.13;13.88;;;11.00;99.90;;;;;;5064586;29;20067;-71
2023/01/27 07:24:50;;;;;;;24.83;22.90;;;11.10;99.90;;;;;;5066247;29;20063;-71
2023/01/27 07:27:22;;;;;;;22.15;20.88;;;11.00;99.90;;;;;;5066304;29;20032;-71
2023/01/27 07:29:53;;;;;;;29.13;27.42;;;11.20;99.90;;;;;;5066374;29;20029;-72
2023/01/27 07:32:24;;;;;;;25.10;23.52;;;11.30;99.90;;;;;;5065151;29;20044;-72
2023/01/27 07:34:55;;;;;;;34.03;31.63;;;11.50;99.90;;;;;;5066252;29;20081;-72
2023/01/27 07:37:25;;;;;;;36.05;33.78;;;11.50;99.90;;;;;;5066045;29;20029;-70
2023/01/27 07:39:56;;;;;;;41.83;39.33;;;11.50;99.90;;;;;;5066594;29;20088;-70
2023/01/27 07:42:27;;;;;;;46.25;43.45;;;11.60;99.90;;;;;;5066493;29;20033;-71
2023/01/27 07:44:58;;;;;;;37.25;35.08;;;11.80;99.90;;;;;;5536070;23;20061;-70
2023/01/27 07:47:29;;;;;;;50.97;47.83;;;11.90;99.90;;;;;;5058866;29;20108;-69
2023/01/27 07:49:59;;;;;;;53.10;49.78;;;12.00;99.90;;;;;;5060430;29;20446;-74
2023/01/27 07:52:30;;;;;;;49.30;46.60;;;12.00;99.90;;;;;;5066304;29;20067;-69
2023/01/27 07:55:01;;;;;;;40.15;37.67;;;12.00;99.90;;;;;;5066469;29;20029;-72
2023/01/27 07:57:33;;;;;;;43.75;41.30;;;12.00;99.90;;;;;;5066549;29;20029;-69
2023/01/27 08:00:04;;;;;;;69.18;65.20;;;12.00;99.90;;;;;;5066381;29;20028;-70
2023/01/27 08:02:35;;;;;;;48.40;45.85;;;12.10;99.90;;;;;;5066263;29;20128;-70
2023/01/27 08:05:06;;;;;;;47.15;44.17;;;12.10;99.90;;;;;;5065327;29;20064;-70
2023/01/27 08:07:37;;;;;;;46.53;43.80;;;12.20;99.90;;;;;;5066130;29;20103;-69
2023/01/27 08:10:09;;;;;;;53.85;50.58;;;12.30;99.90;;;;;;5066315;29;20479;-69
2023/01/27 08:12:40;;;;;;;66.85;63.10;;;12.10;99.90;;;;;;5065828;29;20028;-70
2023/01/27 08:15:11;;;;;;;65.78;61.92;;;12.40;99.90;;;;;;5065674;29;20037;-73
2023/01/27 08:17:42;;;;;;;50.72;47.85;;;12.20;99.90;;;;;;5066068;29;20119;-69
2023/01/27 08:20:13;;;;;;;63.92;60.50;;;12.50;99.90;;;;;;5060286;29;20115;-73
2023/01/27 08:22:44;;;;;;;58.55;55.22;;;12.50;99.90;;;;;;5065740;29;20033;-72
2023/01/27 08:25:15;;;;;;;51.83;48.92;;;12.40;99.90;;;;;;5064617;29;20032;-70
2023/01/27 08:27:49;;;;;;;49.00;45.75;;;12.40;99.90;;;;;;5065943;29;20060;-70
2023/01/27 08:30:21;;;;;;;55.78;52.50;;;12.30;99.90;;;;;;5065540;29;20120;-71
2023/01/27 08:32:52;;;;;;;59.60;55.38;;;12.40;99.90;;;;;;5065637;29;20029;-74
2023/01/27 08:35:23;;;;;;;67.28;63.15;;;12.30;99.90;;;;;;5065809;29;20396;-69
2023/01/27 08:37:54;;;;;;;25.95;24.05;;;12.10;99.90;;;;;;5065804;29;20112;-69
2023/01/27 08:40:24;;;;;;;30.70;27.90;;;12.30;99.90;;;;;;5065391;29;20112;-70
2023/01/27 08:42:55;;;;;;;67.93;63.70;;;12.20;99.90;;;;;;5065501;29;20040;-70
2023/01/27 08:45:27;;;;;;;74.82;70.05;;;12.30;99.90;;;;;;5065211;29;20060;-70
2023/01/27 08:47:58;;;;;;;71.45;66.90;;;12.50;99.90;;;;;;5065721;29;20025;-70
2023/01/27 08:50:29;;;;;;;67.03;62.92;;;12.50;99.90;;;;;;5065614;29;20033;-71
2023/01/27 08:53:00;;;;;;;75.05;70.25;;;12.40;99.90;;;;;;5065568;29;20036;-69
2023/01/27 08:55:32;;;;;;;61.60;57.83;;;12.60;99.90;;;;;;5065713;29;20396;-72
2023/01/27 08:58:03;;;;;;;45.78;42.88;;;12.50;99.90;;;;;;5065891;29;20056;-71
2023/01/27 09:00:34;;;;;;;36.42;33.63;;;12.50;99.90;;;;;;5065587;29;20114;-70
2023/01/27 09:03:05;;;;;;;60.10;56.22;;;12.60;99.90;;;;;;5065537;29;20033;-70
2023/01/27 09:05:36;;;;;;;95.97;90.40;;;12.60;99.90;;;;;;5064497;29;20493;-70
2023/01/27 09:08:08;;;;;;;72.43;68.03;;;12.60;99.90;;;;;;5065432;29;20108;-69
2023/01/27 09:10:40;;;;;;;42.42;39.92;;;12.80;99.90;;;;;;5048902;29;20151;-73
2023/01/27 09:13:11;;;;;;;86.78;81.22;;;12.80;99.90;;;;;;5065163;29;20044;-70
2023/01/27 09:15:42;;;;;;;48.45;45.58;;;12.90;99.90;;;;;;5065340;29;20069;-74
2023/01/27 09:18:13;;;;;;;25.00;22.92;;;12.70;99.90;;;;;;5067791;29;20032;-73
2023/01/27 09:20:44;;;;;;;18.08;16.40;;;12.60;99.90;;;;;;5069204;29;20025;-73
2023/01/27 09:23:15;;;;;;;34.10;31.80;;;12.60;99.90;;;;;;5068755;29;20029;-74
2023/01/27 09:25:46;;;;;;;13.02;12.10;;;12.50;99.90;;;;;;5068956;29;20111;-74
2023/01/27 09:28:17;;;;;;;15.30;13.93;;;12.80;99.90;;;;;;5069116;29;20475;-70
2023/01/27 09:30:48;;;;;;;32.25;29.00;;;12.80;99.90;;;;;;5068921;29;20043;-72
2023/01/27 09:33:19;;;;;;;27.85;24.92;;;12.80;99.90;;;;;;5069002;29;20149;-71
2023/01/27 09:36:13;;;;;;;43.55;40.55;;;12.70;99.90;;;;;;5068664;29;20107;-73
2023/01/27 09:39:06;;;;;;;5.07;4.15;;;12.50;99.90;;;;;;5068558;29;20517;-72
2023/01/27 09:42:11;;;;;;;7.32;4.63;;;12.60;99.90;;;;;;5068627;29;20438;-75
2023/01/27 09:45:23;;;;;;;5.60;3.90;;;12.50;99.90;;;;;;5067686;29;20052;-72
2023/01/27 09:47:57;;;;;;;16.65;15.43;;;12.30;99.90;;;;;;5066723;29;20492;-71
2023/01/27 09:50:56;;;;;;;17.15;15.68;;;12.10;99.90;;;;;;5068343;29;20622;-73
2023/01/27 09:54:08;;;;;;;16.77;14.43;;;12.50;99.90;;;;;;5067513;29;20068;-71
2023/01/27 09:57:12;;;;;;;8.25;5.70;;;12.30;99.90;;;;;;5047356;29;20045;-72
2023/01/27 09:59:46;;;;;;;6.82;4.72;;;12.50;99.90;;;;;;5075639;29;20732;-70
2023/01/27 10:02:17;;;;;;;8.65;6.18;;;12.60;99.90;;;;;;5066960;29;20096;-73
2023/01/27 10:05:06;;;;;;;18.20;16.63;;;12.70;99.90;;;;;;5068278;29;20021;-74
2023/01/27 10:07:40;;;;;;;50.30;47.08;;;12.50;99.90;;;;;;5068433;29;20180;-71
2023/01/27 10:10:21;;;;;;;24.65;22.67;;;12.20;99.90;;;;;;5065331;29;20033;-72
2023/01/27 10:13:04;;;;;;;19.80;18.33;;;12.20;99.90;;;;;;5053160;29;20044;-71
2023/01/27 10:15:52;;;;;;;19.95;18.40;;;12.30;99.90;;;;;;5065206;29;20089;-74
2023/01/27 10:19:12;;;;;;;14.07;12.35;;;12.40;99.90;;;;;;5059665;29;20029;-73
2023/01/27 10:22:00;;;;;;;10.68;7.95;;;12.30;99.90;;;;;;5062349;29;20036;-71
2023/01/27 10:24:49;;;;;;;8.80;7.47;;;12.40;99.90;;;;;;5067977;29;20033;-73
2023/01/27 10:27:25;;;;;;;53.20;49.40;;;12.40;99.90;;;;;;5067754;29;20508;-70
2023/01/27 10:30:10;;;;;;;8.38;6.22;;;12.10;99.90;;;;;;5067839;29;20063;-73
2023/01/27 10:33:06;;;;;;;14.50;12.98;;;12.10;99.90;;;;;;5052539;29;20508;-73
2023/01/27 10:35:58;;;;;;;51.38;48.42;;;12.20;99.90;;;;;;5066772;29;20036;-71
2023/01/27 10:38:48;;;;;;;77.53;73.03;;;12.10;99.90;;;;;;5066324;29;20080;-71
2023/01/27 10:41:29;;;;;;;147.52;139.30;;;12.00;99.90;;;;;;5067747;29;20029;-70
2023/01/27 10:44:21;;;;;;;24.77;22.98;;;12.20;99.90;;;;;;5062398;29;20574;-70
2023/01/27 10:47:10;;;;;;;164.65;155.70;;;12.20;99.90;;;;;;5061300;29;20052;-72
2023/01/27 10:49:50;;;;;;;205.98;194.60;;;12.20;99.90;;;;;;5067479;29;20028;-73
2023/01/27 10:52:35;;;;;;;22.40;20.83;;;12.20;99.90;;;;;;5067591;29;20041;-69
2023/01/27 10:56:03;;;;;;;58.22;54.75;;;12.20;99.90;;;;;;5064449;29;20104;-69
2023/01/27 10:58:57;;;;;;;8.18;7.55;;;12.20;99.90;;;;;;5045447;29;20041;-69
2023/01/27 11:01:33;;;;;;;8.70;7.82;;;12.00;99.90;;;;;;5045731;29;20097;-69
2023/01/27 11:04:30;;;;;;;5.18;4.75;;;12.20;99.90;;;;;;5045630;29;20049;-73
2023/01/27 11:07:04;;;;;;;7.03;3.38;;;11.90;99.90;;;;;;5017855;29;20124;-69
2023/01/27 11:09:48;;;;;;;5.13;2.88;;;11.70;99.90;;;;;;5046520;29;20049;-74
2023/01/27 11:12:31;;;;;;;5.78;4.05;;;11.80;99.90;;;;;;5046097;29;20521;-72
2023/01/27 11:15:27;;;;;;;15.25;14.23;;;11.70;99.90;;;;;;5045260;29;20037;-70
2023/01/27 11:18:19;;;;;;;11.27;10.50;;;11.60;99.90;;;;;;5039647;29;20037;-71
2023/01/27 11:20:59;;;;;;;5.28;4.75;;;11.60;99.90;;;;;;5031453;29;20029;-70
2023/01/27 11:23:34;;;;;;;33.38;31.27;;;11.40;99.90;;;;;;5045371;29;20041;-72
2023/01/27 11:26:38;;;;;;;6.47;5.25;;;11.50;99.90;;;;;;5045389;29;20089;-72
2023/01/27 11:29:31;;;;;;;3.65;3.35;;;11.60;99.90;;;;;;5054229;29;20602;-70
2023/01/27 11:32:40;;;;;;;10.02;9.15;;;11.60;99.90;;;;;;5066861;29;20123;-71
2023/01/27 11:35:13;;;;;;;19.83;10.05;;;11.30;99.90;;;;;;5055542;29;20028;-73
2023/01/27 11:37:50;;;;;;;5.88;3.60;;;11.50;99.90;;;;;;5066403;29;20381;-69
2023/01/27 11:40:32;;;;;;;23.75;18.10;;;11.50;99.90;;;;;;5064933;29;20044;-70
2023/01/27 11:43:08;;;;;;;35.13;33.03;;;11.60;99.90;;;;;;5066442;29;20045;-71
2023/01/27 11:45:39;;;;;;;13.05;11.85;;;11.80;99.90;;;;;;5065776;29;20056;-71
2023/01/27 11:48:16;;;;;;;47.53;44.15;;;11.50;99.90;;;;;;5066505;29;20040;-71
2023/01/27 11:50:46;;;;;;;30.85;28.92;;;11.30;99.90;;;;;;5066300;29;20056;-70
2023/01/27 11:53:35;;;;;;;9.27;5.60;;;11.60;99.90;;;;;;5065175;29;20059;-69
2023/01/27 11:56:14;;;;;;;21.92;20.55;;;11.50;99.90;;;;;;5066261;29;20029;-70
2023/01/27 11:59:04;;;;;;;38.85;36.30;;;11.70;99.90;;;;;;5051712;29;20040;-72
2023/01/27 12:01:38;;;;;;;61.03;57.37;;;11.70;99.90;;;;;;5071320;29;20433;-71
2023/01/27 12:04:44;;;;;;;8.98;8.10;;;11.80;99.90;;;;;;5065986;29;20037;-72
2023/01/27 12:07:26;;;;;;;66.68;62.88;;;11.70;99.90;;;;;;5065695;29;20017;-71
2023/01/27 12:09:57;;;;;;;8.80;5.38;;;11.90;99.90;;;;;;5065995;29;20374;-70
2023/01/27 12:12:28;;;;;;;16.20;14.70;;;11.70;99.90;;;;;;5065633;29;20044;-73
2023/01/27 12:15:01;;;;;;;72.13;67.80;;;12.00;99.90;;;;;;5065702;29;20033;-71
2023/01/27 12:17:51;;;;;;;118.80;111.90;;;12.20;99.90;;;;;;5064481;29;20481;-69
2023/01/27 12:20:26;;;;;;;125.77;118.43;;;12.30;99.90;;;;;;5065490;29;20115;-70
2023/01/27 12:23:19;;;;;;;121.88;114.75;;;12.20;99.90;;;;;;5064620;29;20296;-70
2023/01/27 12:25:57;;;;;;;20.42;18.65;;;12.40;99.90;;;;;;5072394;29;20154;-70
2023/01/27 12:28:28;;;;;;;93.80;88.45;;;12.10;99.90;;;;;;5074496;29;20775;-69
2023/01/27 12:31:09;;;;;;;143.63;134.85;;;12.20;99.90;;;;;;5074596;29;20036;-70
2023/01/27 12:33:45;;;;;;;106.47;100.65;;;12.40;99.90;;;;;;5046746;29;20033;-71
2023/01/27 12:36:23;;;;;;;149.02;140.50;;;12.80;99.90;;;;;;5062591;29;20104;-72
2023/01/27 12:39:01;;;;;;;93.40;87.88;;;13.10;99.90;;;;;;5065708;29;20071;-70
2023/01/27 12:41:34;;;;;;;95.88;89.90;;;13.30;99.90;;;;;;5054535;29;20036;-70
2023/01/27 12:44:17;;;;;;;98.13;92.63;;;13.00;99.90;;;;;;5065733;29;20112;-69
2023/01/27 12:47:20;;;;;;;151.23;142.55;;;13.20;99.90;;;;;;5058419;29;20040;-69
2023/01/27 12:50:21;;;;;;;12.55;11.45;;;13.20;99.90;;;;;;5065906;29;20016;-69
2023/01/27 12:53:15;;;;;;;22.20;20.45;;;13.00;99.90;;;;;;5069852;29;20033;-70
2023/01/27 12:55:58;;;;;;;16.02;14.40;;;13.20;99.90;;;;;;5069653;29;20035;-70
2023/01/27 12:58:42;;;;;;;19.60;18.35;;;13.00;99.90;;;;;;5069554;29;20063;-69
2023/01/27 13:01:27;;;;;;;13.32;9.60;;;13.10;99.90;;;;;;5069747;29;20104;-69
2023/01/27 13:04:05;;;;;;;14.43;13.10;;;13.10;99.90;;;;;;5069492;29;20020;-70
2023/01/27 13:06:54;;;;;;;10.68;9.80;;;13.20;99.90;;;;;;5069577;29;20520;-69
2023/01/27 13:09:46;;;;;;;9.98;6.57;;;13.10;99.90;;;;;;5068010;29;20040;-72
2023/01/27 13:12:22;;;;;;;26.17;24.50;;;13.00;99.90;;;;;;5070678;29;20052;-72
2023/01/27 13:15:04;;;;;;;11.20;10.40;;;13.10;99.90;;;;;;5069252;29;20035;-72
2023/01/27 13:17:42;;;;;;;26.02;24.35;;;13.00;99.90;;;;;;5068987;29;20497;-71
2023/01/27 13:20:36;;;;;;;7.75;4.93;;;13.40;99.90;;;;;;5084362;29;20036;-71
2023/01/27 13:23:21;;;;;;;7.40;6.50;;;13.70;99.90;;;;;;5081076;29;20048;-72
2023/01/27 13:26:10;;;;;;;8.63;7.85;;;14.10;99.90;;;;;;5069089;29;20052;-71
2023/01/27 13:28:51;;;;;;;11.95;10.30;;;14.00;99.90;;;;;;5053978;29;20025;-70
2023/01/27 13:31:44;;;;;;;28.08;26.33;;;14.50;99.90;;;;;;5068915;29;20058;-74
2023/01/27 13:34:21;;;;;;;6.15;5.47;;;14.70;99.90;;;;;;5068767;29;20029;-71
2023/01/27 13:37:14;;;;;;;16.23;14.93;;;14.80;99.90;;;;;;5067673;29;20029;-73
2023/01/27 13:40:37;;;;;;;9.98;9.40;;;15.00;99.90;;;;;;5068808;29;20496;-73
2023/01/27 13:43:32;;;;;;;7.93;5.90;;;15.30;99.90;;;;;;5076264;29;20056;-73
2023/01/27 13:46:19;;;;;;;18.77;17.77;;;15.80;99.90;;;;;;5068459;29;20099;-72